createdAt,value
2023-04-17T00:00:11.851Z,101791.97
2023-04-17T00:00:33.591Z,101788.41
2023-04-17T00:00:58.037Z,101786.66
2023-04-17T00:01:19.635Z,101787.63
2023-04-17T00:01:41.184Z,101791.19
2023-04-17T00:02:02.955Z,101794.06
2023-04-17T00:02:25.676Z,101798.31
2023-04-17T00:02:48.596Z,101794.81
2023-04-17T00:03:12.050Z,101789.44
2023-04-17T00:03:34.117Z,101788.50
2023-04-17T00:03:57.660Z,101784.03
2023-04-17T00:04:22.084Z,101789.44
2023-04-17T00:04:45.443Z,101794.72
2023-04-17T00:05:08.139Z,101793.88
2023-04-17T00:05:31.708Z,101784.19
2023-04-17T00:05:53.989Z,101784.25
2023-04-17T00:06:18.932Z,101791.22
2023-04-17T00:06:43.163Z,101779.69
2023-04-17T00:07:05.935Z,101781.44
2023-04-17T00:07:28.449Z,101791.19
2023-04-17T00:07:51.143Z,101789.38
2023-04-17T00:08:12.821Z,101777.84
2023-04-17T00:08:35.019Z,101781.41
2023-04-17T00:08:56.693Z,101786.72
2023-04-17T00:09:19.290Z,101781.50
2023-04-17T00:09:41.015Z,101782.25
2023-04-17T00:10:05.274Z,101785.78
2023-04-17T00:10:26.936Z,101788.41
2023-04-17T00:11:00.135Z,101791.06
2023-04-17T00:11:28.586Z,101787.59
2023-04-17T00:11:50.229Z,101788.44
2023-04-17T00:12:41.498Z,101785.72
2023-04-17T00:13:03.386Z,101780.38
2023-04-17T00:13:25.075Z,101786.59
2023-04-17T00:13:46.786Z,101785.72
2023-04-17T00:14:09.584Z,101786.59
2023-04-17T00:14:31.341Z,101776.94
2023-04-17T00:14:53.067Z,101785.72
2023-04-17T00:15:14.983Z,101774.31
2023-04-17T00:15:37.593Z,101786.59
2023-04-17T00:15:59.364Z,101783.88
2023-04-17T00:16:21.310Z,101781.28
2023-04-17T00:16:43.115Z,101783.88
2023-04-17T00:17:05.030Z,101778.50
2023-04-17T00:17:27.815Z,101778.53
2023-04-17T00:17:49.515Z,101775.03
2023-04-17T00:18:11.281Z,101754.06
2023-04-17T00:18:32.908Z,101778.50
2023-04-17T00:18:55.921Z,101778.44
2023-04-17T00:19:17.839Z,101783.84
2023-04-17T00:19:39.510Z,101770.63
2023-04-17T00:20:01.276Z,101781.06
2023-04-17T00:20:23.816Z,101775.72
2023-04-17T00:20:45.547Z,101772.13
2023-04-17T00:21:07.384Z,101770.28
2023-04-17T00:21:29.849Z,101773.00
2023-04-17T00:21:52.665Z,101777.47
2023-04-17T00:22:14.314Z,101774.00
2023-04-17T00:22:36.113Z,101774.91
2023-04-17T00:22:57.980Z,101768.78
2023-04-17T00:23:19.543Z,101782.81
2023-04-17T00:23:42.265Z,101781.94
2023-04-17T00:24:04.068Z,101776.66
2023-04-17T00:24:25.826Z,101778.44
2023-04-17T00:24:47.482Z,101775.81
2023-04-17T00:25:14.716Z,101781.16
2023-04-17T00:25:37.413Z,101782.91
2023-04-17T00:25:59.120Z,101771.38
2023-04-17T00:26:20.915Z,101779.41
2023-04-17T00:26:43.823Z,101777.59
2023-04-17T00:27:05.532Z,101779.41
2023-04-17T00:27:27.212Z,101779.38
2023-04-17T00:27:49.249Z,101762.66
2023-04-17T00:28:11.846Z,101779.38
2023-04-17T00:28:33.641Z,101767.03
2023-04-17T00:28:56.189Z,101774.06
2023-04-17T00:29:18.485Z,101775.03
2023-04-17T00:29:41.271Z,101783.06
2023-04-17T00:30:03.448Z,101774.91
2023-04-17T00:30:25.032Z,101776.69
2023-04-17T00:30:46.773Z,101775.81
2023-04-17T00:31:08.974Z,101774.00
2023-04-17T00:31:31.822Z,101775.72
2023-04-17T00:31:53.570Z,101774.78
2023-04-17T00:32:15.361Z,101782.78
2023-04-17T00:32:37.024Z,101771.25
2023-04-17T00:32:59.926Z,101777.56
2023-04-17T00:33:21.642Z,101777.47
2023-04-17T00:33:43.279Z,101774.91
2023-04-17T00:34:04.914Z,101769.56
2023-04-17T00:34:26.548Z,101774.91
2023-04-17T00:34:50.292Z,101770.47
2023-04-17T00:35:12.047Z,101772.31
2023-04-17T00:35:34.414Z,101770.47
2023-04-17T00:35:57.040Z,101774.97
2023-04-17T00:36:19.019Z,101766.13
2023-04-17T00:36:40.600Z,101761.69
2023-04-17T00:37:02.376Z,101771.34
2023-04-17T00:37:25.109Z,101768.78
2023-04-17T00:37:48.108Z,101768.78
2023-04-17T00:38:09.766Z,101770.56
2023-04-17T00:38:31.421Z,101774.13
2023-04-17T00:38:54.109Z,101769.69
2023-04-17T00:39:15.917Z,101776.81
2023-04-17T00:39:37.510Z,101768.09
2023-04-17T00:39:59.680Z,101782.16
2023-04-17T00:40:23.661Z,101771.47
2023-04-17T00:40:45.764Z,101764.50
2023-04-17T00:41:07.485Z,101772.41
2023-04-17T00:41:29.205Z,101764.41
2023-04-17T00:41:51.927Z,101775.97
2023-04-17T00:42:13.846Z,101764.47
2023-04-17T00:42:35.529Z,101770.72
2023-04-17T00:43:00.121Z,101770.72
2023-04-17T00:43:22.815Z,101768.81
2023-04-17T00:43:44.568Z,101771.56
2023-04-17T00:44:06.537Z,101770.63
2023-04-17T00:44:28.231Z,101772.38
2023-04-17T00:44:49.854Z,101766.13
2023-04-17T00:45:12.678Z,101763.44
2023-04-17T00:45:34.902Z,101775.03
2023-04-17T00:45:57.002Z,101773.34
2023-04-17T00:46:18.916Z,101769.75
2023-04-17T00:46:42.413Z,101770.63
2023-04-17T00:47:04.377Z,101765.28
2023-04-17T00:47:26.410Z,101766.16
2023-04-17T00:47:49.915Z,101769.69
2023-04-17T00:48:13.593Z,101767.06
2023-04-17T00:48:37.332Z,101758.19
2023-04-17T00:49:00.919Z,101769.81
2023-04-17T00:49:24.973Z,101760.03
2023-04-17T00:49:46.662Z,101760.88
2023-04-17T00:50:10.010Z,101757.31
2023-04-17T00:50:31.846Z,101758.19
2023-04-17T00:50:55.169Z,101759.16
2023-04-17T00:51:17.900Z,101762.72
2023-04-17T00:51:39.752Z,101760.03
2023-04-17T00:52:01.727Z,101760.97
2023-04-17T00:52:28.803Z,101761.88
2023-04-17T00:52:52.738Z,101767.22
2023-04-17T00:53:14.580Z,101763.63
2023-04-17T00:53:36.659Z,101763.59
2023-04-17T00:54:00.358Z,101765.38
2023-04-17T00:54:24.175Z,101756.53
2023-04-17T00:54:46.373Z,101760.91
2023-04-17T00:55:08.641Z,101761.78
2023-04-17T00:55:32.771Z,101756.47
2023-04-17T00:55:57.069Z,101761.88
2023-04-17T00:56:18.982Z,101759.19
2023-04-17T00:56:41.736Z,101758.38
2023-04-17T00:57:03.719Z,101760.13
2023-04-17T00:57:26.717Z,101763.63
2023-04-17T00:57:49.276Z,101761.88
2023-04-17T00:58:11.893Z,101757.41
2023-04-17T00:58:36.015Z,101757.41
2023-04-17T00:58:59.024Z,101757.38
2023-04-17T00:59:21.978Z,101756.59
2023-04-17T00:59:44.231Z,101749.44
2023-04-17T01:00:09.532Z,101760.00
2023-04-17T01:00:31.280Z,101762.66
2023-04-17T01:00:53.514Z,101761.88
2023-04-17T01:01:16.372Z,101750.41
2023-04-17T01:01:38.244Z,101756.47
2023-04-17T01:02:00.473Z,101763.63
2023-04-17T01:02:22.565Z,101760.94
2023-04-17T01:02:44.904Z,101763.66
2023-04-17T01:03:08.483Z,101760.97
2023-04-17T01:03:32.348Z,101758.28
2023-04-17T01:03:55.104Z,101760.03
2023-04-17T01:04:17.280Z,101764.41
2023-04-17T01:04:40.030Z,101763.56
2023-04-17T01:05:01.863Z,101759.06
2023-04-17T01:05:24.047Z,101754.66
2023-04-17T01:05:49.891Z,101762.59
2023-04-17T01:06:12.798Z,101760.81
2023-04-17T01:06:37.082Z,101761.69
2023-04-17T01:06:59.753Z,101766.16
2023-04-17T01:07:21.472Z,101763.47
2023-04-17T01:07:44.897Z,101764.41
2023-04-17T01:08:06.651Z,101753.72
2023-04-17T01:08:29.572Z,101755.47
2023-04-17T01:08:51.381Z,101760.91
2023-04-17T01:09:15.089Z,101761.69
2023-04-17T01:09:37.974Z,101759.00
2023-04-17T01:09:59.958Z,101762.59
2023-04-17T01:10:21.780Z,101764.41
2023-04-17T01:10:46.107Z,101759.94
2023-04-17T01:11:07.874Z,101760.88
2023-04-17T01:11:30.372Z,101766.22
2023-04-17T01:11:52.303Z,101763.56
2023-04-17T01:12:18.359Z,101758.28
2023-04-17T01:12:41.345Z,101763.63
2023-04-17T01:13:04.679Z,101760.13
2023-04-17T01:13:27.473Z,101764.50
2023-04-17T01:13:49.800Z,101765.38
2023-04-17T01:14:13.273Z,101761.81
2023-04-17T01:14:34.958Z,101767.22
2023-04-17T01:14:57.556Z,101764.53
2023-04-17T01:15:19.465Z,101759.25
2023-04-17T01:15:42.841Z,101763.66
2023-04-17T01:16:05.352Z,101761.06
2023-04-17T01:16:30.361Z,101765.47
2023-04-17T01:16:52.065Z,101769.06
2023-04-17T01:17:14.418Z,101765.53
2023-04-17T01:17:37.186Z,101766.31
2023-04-17T01:17:59.623Z,101762.84
2023-04-17T01:18:21.356Z,101763.66
2023-04-17T01:18:43.155Z,101753.91
2023-04-17T01:19:06.025Z,101761.97
2023-04-17T01:19:28.777Z,101761.97
2023-04-17T01:19:50.704Z,101763.66
2023-04-17T01:20:13.825Z,101768.97
2023-04-17T01:20:37.521Z,101762.75
2023-04-17T01:20:59.215Z,101760.13
2023-04-17T01:21:21.092Z,101758.25
2023-04-17T01:21:42.800Z,101752.94
2023-04-17T01:22:04.555Z,101762.81
2023-04-17T01:22:27.323Z,101765.41
2023-04-17T01:22:52.656Z,101755.56
2023-04-17T01:23:14.975Z,101755.59
2023-04-17T01:23:44.555Z,101760.94
2023-04-17T01:24:09.445Z,101763.66
2023-04-17T01:24:31.105Z,101760.94
2023-04-17T01:24:52.893Z,101760.13
2023-04-17T01:25:14.732Z,101757.38
2023-04-17T01:25:37.572Z,101754.72
2023-04-17T01:25:59.334Z,101760.19
2023-04-17T01:26:22.805Z,101755.75
2023-04-17T01:26:44.702Z,101754.91
2023-04-17T01:27:07.802Z,101758.38
2023-04-17T01:27:30.243Z,101754.84
2023-04-17T01:27:52.127Z,101760.19
2023-04-17T01:28:13.865Z,101755.63
2023-04-17T01:28:36.639Z,101762.81
2023-04-17T01:28:59.684Z,101749.53
2023-04-17T01:29:21.914Z,101747.69
2023-04-17T01:29:44.414Z,101750.41
2023-04-17T01:30:08.986Z,101753.97
2023-04-17T01:30:37.657Z,101750.44
2023-04-17T01:31:03.758Z,101752.16
2023-04-17T01:31:27.003Z,101753.03
2023-04-17T01:31:50.629Z,101750.38
2023-04-17T01:32:12.425Z,101758.31
2023-04-17T01:32:34.495Z,101755.75
2023-04-17T01:32:57.114Z,101744.19
2023-04-17T01:33:18.859Z,101752.13
2023-04-17T01:33:40.747Z,101757.50
2023-04-17T01:34:02.481Z,101755.72
2023-04-17T01:34:24.973Z,101754.84
2023-04-17T01:34:47.647Z,101751.28
2023-04-17T01:35:10.277Z,101756.63
2023-04-17T01:35:31.972Z,101760.22
2023-04-17T01:35:53.859Z,101744.19
2023-04-17T01:36:17.126Z,101753.03
2023-04-17T01:36:38.789Z,101762.81
2023-04-17T01:37:00.796Z,101760.97
2023-04-17T01:37:22.906Z,101755.84
2023-04-17T01:37:45.769Z,101752.22
2023-04-17T01:38:07.465Z,101755.78
2023-04-17T01:38:29.144Z,101758.44
2023-04-17T01:38:50.810Z,101757.66
2023-04-17T01:39:15.684Z,101761.13
2023-04-17T01:39:37.386Z,101757.56
2023-04-17T01:39:59.142Z,101754.88
2023-04-17T01:40:20.812Z,101755.63
2023-04-17T01:40:43.420Z,101758.44
2023-04-17T01:41:09.804Z,101759.34
2023-04-17T01:41:31.526Z,101757.56
2023-04-17T01:41:54.264Z,101758.53
2023-04-17T01:42:16.049Z,101755.00
2023-04-17T01:42:39.830Z,101758.56
2023-04-17T01:43:01.807Z,101752.31
2023-04-17T01:43:23.550Z,101749.81
2023-04-17T01:43:46.604Z,101755.16
2023-04-17T01:44:08.334Z,101761.28
2023-04-17T01:44:30.922Z,101754.16
2023-04-17T01:44:52.691Z,101762.16
2023-04-17T01:45:14.476Z,101761.19
2023-04-17T01:45:36.187Z,101759.34
2023-04-17T01:45:57.863Z,101754.91
2023-04-17T01:46:20.696Z,101756.66
2023-04-17T01:46:43.898Z,101760.31
2023-04-17T01:47:05.630Z,101764.69
2023-04-17T01:47:27.530Z,101758.53
2023-04-17T01:47:51.309Z,101754.97
2023-04-17T01:48:12.993Z,101762.88
2023-04-17T01:48:35.510Z,101756.66
2023-04-17T01:48:57.256Z,101758.44
2023-04-17T01:49:19.740Z,101766.47
2023-04-17T01:49:42.376Z,101763.00
2023-04-17T01:50:04.649Z,101758.44
2023-04-17T01:50:27.585Z,101757.56
2023-04-17T01:50:49.568Z,101762.84
2023-04-17T01:51:12.263Z,101760.22
2023-04-17T01:51:34.091Z,101760.19
2023-04-17T01:51:55.853Z,101761.09
2023-04-17T01:52:17.602Z,101760.19
2023-04-17T01:52:39.883Z,101759.28
2023-04-17T01:53:02.490Z,101756.59
2023-04-17T01:53:24.180Z,101760.19
2023-04-17T01:53:45.880Z,101759.25
2023-04-17T01:54:07.765Z,101758.41
2023-04-17T01:54:32.242Z,101758.44
2023-04-17T01:54:53.869Z,101762.00
2023-04-17T01:55:15.676Z,101755.78
2023-04-17T01:55:37.807Z,101763.88
2023-04-17T01:56:00.281Z,101768.22
2023-04-17T01:56:23.718Z,101763.81
2023-04-17T01:56:45.518Z,101767.34
2023-04-17T01:57:07.183Z,101770.91
2023-04-17T01:57:28.931Z,101768.22
2023-04-17T01:57:52.027Z,101765.66
2023-04-17T01:58:13.752Z,101759.41
2023-04-17T01:58:35.454Z,101762.00
2023-04-17T01:58:57.197Z,101762.91
2023-04-17T01:59:19.009Z,101760.25
2023-04-17T01:59:41.647Z,101768.25
2023-04-17T02:00:07.227Z,101759.41
2023-04-17T02:00:34.076Z,101768.22
2023-04-17T02:00:55.936Z,101765.56
2023-04-17T02:01:18.717Z,101767.31
2023-04-17T02:01:40.400Z,101765.56
2023-04-17T02:02:02.119Z,101761.06
2023-04-17T02:02:23.858Z,101758.53
2023-04-17T02:02:46.679Z,101767.31
2023-04-17T02:03:08.934Z,101766.41
2023-04-17T02:03:32.057Z,101759.28
2023-04-17T02:03:53.931Z,101769.97
2023-04-17T02:04:18.204Z,101765.56
2023-04-17T02:04:41.054Z,101754.97
2023-04-17T02:05:03.139Z,101768.25
2023-04-17T02:05:24.908Z,101764.78
2023-04-17T02:05:47.135Z,101761.22
2023-04-17T02:06:08.742Z,101763.91
2023-04-17T02:06:32.967Z,101769.28
2023-04-17T02:06:55.039Z,101767.50
2023-04-17T02:07:16.754Z,101757.72
2023-04-17T02:07:38.463Z,101769.25
2023-04-17T02:08:00.138Z,101769.28
2023-04-17T02:08:22.880Z,101763.91
2023-04-17T02:08:44.601Z,101770.16
2023-04-17T02:09:06.830Z,101768.41
2023-04-17T02:09:33.331Z,101769.38
2023-04-17T02:09:55.119Z,101764.91
2023-04-17T02:10:17.916Z,101762.25
2023-04-17T02:10:40.602Z,101757.81
2023-04-17T02:11:02.414Z,101764.03
2023-04-17T02:11:24.022Z,101764.00
2023-04-17T02:11:46.923Z,101762.25
2023-04-17T02:12:08.633Z,101758.75
2023-04-17T02:12:30.355Z,101763.19
2023-04-17T02:12:52.055Z,101761.47
2023-04-17T02:13:14.787Z,101763.13
2023-04-17T02:13:36.558Z,101761.34
2023-04-17T02:13:58.194Z,101764.00
2023-04-17T02:14:20.906Z,101755.13
2023-04-17T02:14:43.512Z,101762.25
2023-04-17T02:15:06.681Z,101761.22
2023-04-17T02:15:28.412Z,101764.75
2023-04-17T02:15:51.573Z,101760.34
2023-04-17T02:16:13.520Z,101761.22
2023-04-17T02:16:38.850Z,101761.19
2023-04-17T02:17:00.476Z,101763.91
2023-04-17T02:17:22.191Z,101766.56
2023-04-17T02:17:43.914Z,101767.50
2023-04-17T02:18:06.269Z,101767.50
2023-04-17T02:18:31.068Z,101762.19
2023-04-17T02:18:55.497Z,101768.41
2023-04-17T02:19:17.222Z,101766.59
2023-04-17T02:19:40.072Z,101763.91
2023-04-17T02:20:01.826Z,101761.28
2023-04-17T02:20:25.713Z,101767.50
2023-04-17T02:20:47.522Z,101765.81
2023-04-17T02:21:09.707Z,101761.38
2023-04-17T02:21:32.598Z,101758.69
2023-04-17T02:21:54.179Z,101764.97
2023-04-17T02:22:15.893Z,101762.16
2023-04-17T02:22:37.527Z,101764.84
2023-04-17T02:22:59.842Z,101757.78
2023-04-17T02:23:22.447Z,101767.59
2023-04-17T02:23:44.203Z,101760.38
2023-04-17T02:24:06.708Z,101766.69
2023-04-17T02:24:28.454Z,101756.84
2023-04-17T02:24:52.440Z,101761.28
2023-04-17T02:25:15.435Z,101765.72
2023-04-17T02:25:37.160Z,101761.34
2023-04-17T02:25:58.773Z,101760.38
2023-04-17T02:26:21.959Z,101762.31
2023-04-17T02:26:43.627Z,101757.97
2023-04-17T02:27:07.588Z,101759.75
2023-04-17T02:27:30.158Z,101760.63
2023-04-17T02:27:52.760Z,101758.00
2023-04-17T02:28:14.437Z,101753.53
2023-04-17T02:28:36.096Z,101758.84
2023-04-17T02:28:58.058Z,101759.72
2023-04-17T02:29:20.973Z,101759.72
2023-04-17T02:29:42.825Z,101762.31
2023-04-17T02:30:05.385Z,101759.75
2023-04-17T02:30:27.861Z,101763.34
2023-04-17T02:30:51.021Z,101765.09
2023-04-17T02:31:14.446Z,101762.38
2023-04-17T02:31:36.201Z,101759.72
2023-04-17T02:31:58.137Z,101761.50
2023-04-17T02:32:19.832Z,101760.63
2023-04-17T02:32:42.764Z,101759.75
2023-04-17T02:33:04.494Z,101761.53
2023-04-17T02:33:26.446Z,101764.06
2023-04-17T02:33:48.370Z,101763.16
2023-04-17T02:34:11.819Z,101759.56
2023-04-17T02:34:34.654Z,101768.47
2023-04-17T02:34:57.188Z,101766.59
2023-04-17T02:35:19.054Z,101765.69
2023-04-17T02:35:41.418Z,101766.56
2023-04-17T02:36:04.462Z,101765.69
2023-04-17T02:36:32.326Z,101764.84
2023-04-17T02:36:53.925Z,101755.16
2023-04-17T02:37:18.164Z,101759.56
2023-04-17T02:37:40.941Z,101763.06
2023-04-17T02:38:02.585Z,101764.03
2023-04-17T02:38:24.357Z,101762.25
2023-04-17T02:38:46.010Z,101762.19
2023-04-17T02:39:09.531Z,101763.06
2023-04-17T02:39:31.685Z,101764.03
2023-04-17T02:39:55.962Z,101764.03
2023-04-17T02:40:18.049Z,101766.72
2023-04-17T02:40:40.784Z,101765.81
2023-04-17T02:41:02.459Z,101764.84
2023-04-17T02:41:25.691Z,101766.59
2023-04-17T02:41:47.716Z,101761.28
2023-04-17T02:42:10.255Z,101763.03
2023-04-17T02:42:33.024Z,101768.41
2023-04-17T02:42:54.673Z,101768.41
2023-04-17T02:43:17.117Z,101763.06
2023-04-17T02:43:38.772Z,101767.50
2023-04-17T02:44:02.200Z,101771.00
2023-04-17T02:44:24.115Z,101763.03
2023-04-17T02:44:46.442Z,101768.25
2023-04-17T02:45:09.513Z,101761.13
2023-04-17T02:45:32.282Z,101770.03
2023-04-17T02:45:55.791Z,101766.47
2023-04-17T02:46:18.949Z,101762.91
2023-04-17T02:46:40.923Z,101770.91
2023-04-17T02:47:05.194Z,101767.31
2023-04-17T02:47:28.092Z,101772.69
2023-04-17T02:47:49.788Z,101769.97
2023-04-17T02:48:11.589Z,101765.59
2023-04-17T02:48:33.184Z,101763.81
2023-04-17T02:48:55.780Z,101762.06
2023-04-17T02:49:17.565Z,101763.81
2023-04-17T02:49:39.244Z,101756.91
2023-04-17T02:50:00.985Z,101766.53
2023-04-17T02:50:23.658Z,101770.09
2023-04-17T02:50:55.726Z,101770.03
2023-04-17T02:51:17.669Z,101764.75
2023-04-17T02:51:39.442Z,101761.13
2023-04-17T02:52:01.171Z,101758.44
2023-04-17T02:52:23.902Z,101762.06
2023-04-17T02:52:45.571Z,101759.34
2023-04-17T02:53:07.528Z,101763.75
2023-04-17T02:53:29.157Z,101761.13
2023-04-17T02:53:51.920Z,101763.81
2023-04-17T02:54:13.904Z,101769.13
2023-04-17T02:54:35.706Z,101765.56
2023-04-17T02:54:59.374Z,101760.19
2023-04-17T02:55:22.347Z,101762.84
2023-04-17T02:55:45.038Z,101762.00
2023-04-17T02:56:07.933Z,101757.50
2023-04-17T02:56:30.549Z,101757.50
2023-04-17T02:56:52.975Z,101755.75
2023-04-17T02:57:14.766Z,101755.78
2023-04-17T02:57:37.518Z,101760.22
2023-04-17T02:57:59.247Z,101760.22
2023-04-17T02:58:20.874Z,101759.28
2023-04-17T02:58:44.979Z,101752.22
2023-04-17T02:59:07.812Z,101752.31
2023-04-17T02:59:29.600Z,101760.31
2023-04-17T02:59:51.698Z,101758.53
2023-04-17T03:00:15.208Z,101758.44
2023-04-17T03:00:38.083Z,101756.72
2023-04-17T03:01:02.439Z,101755.78
2023-04-17T03:01:26.417Z,101761.09
2023-04-17T03:01:48.244Z,101759.34
2023-04-17T03:02:14.684Z,101763.81
2023-04-17T03:02:38.127Z,101761.97
2023-04-17T03:02:59.979Z,101761.06
2023-04-17T03:03:21.893Z,101762.84
2023-04-17T03:03:45.087Z,101758.53
2023-04-17T03:04:08.876Z,101761.97
2023-04-17T03:04:30.992Z,101758.44
2023-04-17T03:04:53.620Z,101764.69
2023-04-17T03:05:17.062Z,101760.22
2023-04-17T03:05:38.745Z,101758.53
2023-04-17T03:06:00.690Z,101757.56
2023-04-17T03:06:24.169Z,101754.91
2023-04-17T03:06:46.727Z,101768.22
2023-04-17T03:07:10.384Z,101760.31
2023-04-17T03:07:32.401Z,101756.78
2023-04-17T03:07:54.684Z,101763.00
2023-04-17T03:08:16.492Z,101755.88
2023-04-17T03:08:42.464Z,101771.91
2023-04-17T03:09:05.058Z,101767.44
2023-04-17T03:09:27.344Z,101759.47
2023-04-17T03:09:49.809Z,101762.19
2023-04-17T03:10:13.408Z,101771.06
2023-04-17T03:10:36.172Z,101766.59
2023-04-17T03:10:57.862Z,101763.06
2023-04-17T03:11:19.738Z,101761.19
2023-04-17T03:11:41.786Z,101758.56
2023-04-17T03:12:04.494Z,101763.00
2023-04-17T03:12:27.197Z,101762.09
2023-04-17T03:12:48.847Z,101763.88
2023-04-17T03:13:10.682Z,101753.19
2023-04-17T03:13:34.348Z,101761.28
2023-04-17T03:13:57.215Z,101758.56
2023-04-17T03:14:18.904Z,101762.06
2023-04-17T03:14:41.016Z,101766.56
2023-04-17T03:15:02.922Z,101759.44
2023-04-17T03:15:25.197Z,101755.03
2023-04-17T03:15:47.861Z,101764.84
2023-04-17T03:16:09.816Z,101765.72
2023-04-17T03:16:33.176Z,101755.88
2023-04-17T03:16:58.161Z,101762.06
2023-04-17T03:17:21.063Z,101759.44
2023-04-17T03:17:43.437Z,101762.91
2023-04-17T03:18:05.562Z,101761.09
2023-04-17T03:18:27.444Z,101765.56
2023-04-17T03:18:50.502Z,101759.47
2023-04-17T03:19:12.417Z,101767.41
2023-04-17T03:19:34.917Z,101760.31
2023-04-17T03:19:56.647Z,101765.66
2023-04-17T03:20:19.554Z,101766.53
2023-04-17T03:20:41.254Z,101761.22
2023-04-17T03:21:03.070Z,101762.09
2023-04-17T03:21:25.001Z,101767.50
2023-04-17T03:21:47.212Z,101762.16
2023-04-17T03:22:11.387Z,101761.28
2023-04-17T03:22:35.185Z,101766.53
2023-04-17T03:22:57.605Z,101770.19
2023-04-17T03:23:19.298Z,101772.78
2023-04-17T03:23:42.353Z,101762.16
2023-04-17T03:24:04.521Z,101761.22
2023-04-17T03:24:26.222Z,101760.38
2023-04-17T03:24:48.056Z,101765.72
2023-04-17T03:25:10.259Z,101767.50
2023-04-17T03:25:41.541Z,101763.88
2023-04-17T03:26:03.280Z,101763.88
2023-04-17T03:26:27.591Z,101770.13
2023-04-17T03:26:49.555Z,101772.75
2023-04-17T03:27:14.913Z,101775.47
2023-04-17T03:27:38.591Z,101766.53
2023-04-17T03:28:00.961Z,101767.50
2023-04-17T03:28:27.096Z,101762.16
2023-04-17T03:28:49.789Z,101770.16
2023-04-17T03:29:12.121Z,101768.38
2023-04-17T03:29:34.293Z,101769.25
2023-04-17T03:29:56.291Z,101767.50
2023-04-17T03:30:19.925Z,101767.53
2023-04-17T03:30:45.350Z,101766.69
2023-04-17T03:31:07.242Z,101764.91
2023-04-17T03:31:30.004Z,101771.06
2023-04-17T03:31:52.042Z,101766.69
2023-04-17T03:32:14.110Z,101759.50
2023-04-17T03:32:38.149Z,101766.59
2023-04-17T03:33:00.016Z,101766.69
2023-04-17T03:33:24.568Z,101766.72
2023-04-17T03:33:47.400Z,101769.34
2023-04-17T03:34:10.024Z,101764.91
2023-04-17T03:34:32.338Z,101771.06
2023-04-17T03:34:54.145Z,101769.28
2023-04-17T03:35:15.983Z,101764.81
2023-04-17T03:35:39.204Z,101765.72
2023-04-17T03:36:03.708Z,101761.28
2023-04-17T03:36:27.072Z,101765.69
2023-04-17T03:36:49.399Z,101769.25
2023-04-17T03:37:11.183Z,101768.34
2023-04-17T03:37:33.104Z,101768.34
2023-04-17T03:37:54.801Z,101770.13
2023-04-17T03:38:18.895Z,101771.00
2023-04-17T03:38:42.352Z,101765.66
2023-04-17T03:39:04.325Z,101764.84
2023-04-17T03:39:26.954Z,101765.66
2023-04-17T03:39:48.681Z,101762.16
2023-04-17T03:40:11.949Z,101765.69
2023-04-17T03:40:33.828Z,101769.34
2023-04-17T03:40:56.974Z,101769.28
2023-04-17T03:41:20.953Z,101766.59
2023-04-17T03:41:43.087Z,101760.38
2023-04-17T03:42:05.986Z,101764.00
2023-04-17T03:42:27.845Z,101765.81
2023-04-17T03:42:50.530Z,101770.19
2023-04-17T03:43:12.232Z,101771.16
2023-04-17T03:43:34.006Z,101765.72
2023-04-17T03:43:55.647Z,101761.28
2023-04-17T03:44:19.120Z,101766.59
2023-04-17T03:44:40.943Z,101765.66
2023-04-17T03:45:04.394Z,101760.34
2023-04-17T03:45:27.809Z,101765.59
2023-04-17T03:45:50.611Z,101760.25
2023-04-17T03:46:12.932Z,101750.69
2023-04-17T03:46:34.851Z,101770.91
2023-04-17T03:46:56.723Z,101767.41
2023-04-17T03:47:19.481Z,101765.56
2023-04-17T03:47:41.868Z,101767.34
2023-04-17T03:48:04.130Z,101770.09
2023-04-17T03:48:27.921Z,101765.56
2023-04-17T03:48:49.677Z,101769.13
2023-04-17T03:49:12.961Z,101762.91
2023-04-17T03:49:35.110Z,101773.59
2023-04-17T03:49:56.852Z,101767.44
2023-04-17T03:50:19.602Z,101764.00
2023-04-17T03:50:50.233Z,101772.88
2023-04-17T03:51:12.088Z,101768.50
2023-04-17T03:51:34.321Z,101766.59
2023-04-17T03:52:03.731Z,101772.03
2023-04-17T03:52:26.256Z,101769.28
2023-04-17T03:52:53.009Z,101767.59
2023-04-17T03:53:14.905Z,101772.06
2023-04-17T03:53:36.687Z,101764.03
2023-04-17T03:54:01.500Z,101762.25
2023-04-17T03:54:24.318Z,101766.72
2023-04-17T03:54:49.601Z,101765.81
2023-04-17T03:55:11.433Z,101762.28
2023-04-17T03:55:33.315Z,101769.41
2023-04-17T03:55:55.020Z,101768.47
2023-04-17T03:56:23.592Z,101772.03
2023-04-17T03:56:45.439Z,101769.34
2023-04-17T03:57:07.784Z,101763.06
2023-04-17T03:57:30.362Z,101765.81
2023-04-17T03:57:52.509Z,101772.94
2023-04-17T03:58:15.418Z,101772.19
2023-04-17T03:58:37.079Z,101771.19
2023-04-17T03:59:00.403Z,101773.00
2023-04-17T03:59:23.627Z,101767.66
2023-04-17T03:59:45.852Z,101762.38
2023-04-17T04:00:10.510Z,101773.88
2023-04-17T04:00:45.727Z,101772.16
2023-04-17T04:01:10.743Z,101775.69
2023-04-17T04:01:38.633Z,101774.84
2023-04-17T04:02:09.311Z,101776.63
2023-04-17T04:02:32.713Z,101775.78
2023-04-17T04:02:54.783Z,101778.41
2023-04-17T04:03:21.697Z,101769.53
2023-04-17T04:03:43.966Z,101779.31
2023-04-17T04:04:07.301Z,101773.97
2023-04-17T04:04:29.597Z,101772.16
2023-04-17T04:05:00.495Z,101776.56
2023-04-17T04:05:22.279Z,101778.41
2023-04-17T04:05:45.639Z,101774.84
2023-04-17T04:06:07.791Z,101770.41
2023-04-17T04:06:29.898Z,101774.88
2023-04-17T04:06:54.446Z,101773.06
2023-04-17T04:07:16.281Z,101770.41
2023-04-17T04:07:39.010Z,101778.34
2023-04-17T04:08:01.276Z,101774.75
2023-04-17T04:08:29.115Z,101773.88
2023-04-17T04:08:50.995Z,101780.09
2023-04-17T04:09:14.057Z,101768.59
2023-04-17T04:09:37.242Z,101772.19
2023-04-17T04:10:00.561Z,101775.69
2023-04-17T04:10:22.358Z,101775.69
2023-04-17T04:10:44.817Z,101778.34
2023-04-17T04:11:10.335Z,101775.75
2023-04-17T04:11:35.382Z,101775.69
2023-04-17T04:11:58.193Z,101777.44
2023-04-17T04:12:22.927Z,101778.41
2023-04-17T04:12:44.609Z,101774.84
2023-04-17T04:13:07.729Z,101773.22
2023-04-17T04:13:29.685Z,101778.59
2023-04-17T04:13:54.140Z,101774.00
2023-04-17T04:14:15.805Z,101775.75
2023-04-17T04:14:42.194Z,101764.22
2023-04-17T04:15:05.963Z,101774.88
2023-04-17T04:15:29.975Z,101771.34
2023-04-17T04:15:55.571Z,101781.25
2023-04-17T04:16:21.108Z,101772.34
2023-04-17T04:16:44.149Z,101778.56
2023-04-17T04:17:07.560Z,101768.69
2023-04-17T04:17:29.785Z,101777.56
2023-04-17T04:17:51.524Z,101788.13
2023-04-17T04:18:14.412Z,101774.88
2023-04-17T04:18:36.992Z,101783.78
2023-04-17T04:19:00.123Z,101772.22
2023-04-17T04:19:21.815Z,101774.03
2023-04-17T04:19:46.034Z,101776.75
2023-04-17T04:20:09.092Z,101768.75